Time;durP1;ratioP1;P1;durP2;ratioP2;P2;SDS_P1;SDS_P2;PMS_P1;PMS_P2;Temp;Humidity;BMP_temperature;BMP_pressure;BME280_temperature;BME280_humidity;BME280_pressure;Samples;Min_cycle;Max_cycle;Signal;HPM_P1;HPM_P2
2023/09/04 00:04:27;;;;;;;15.98;4.53;;;20.40;83.70;;;;;;21091732;28;20138;-56
2023/09/04 00:14:28;;;;;;;11.07;3.65;;;20.40;83.60;;;;;;21092262;28;20040;-56
2023/09/04 00:24:29;;;;;;;11.88;4.25;;;20.50;82.80;;;;;;21091326;28;20119;-58
2023/09/04 00:34:30;;;;;;;12.10;3.83;;;20.40;82.80;;;;;;21090294;28;20056;-57
2023/09/04 00:44:30;;;;;;;14.57;4.47;;;20.40;82.80;;;;;;21088766;28;20044;-56
2023/09/04 00:54:31;;;;;;;12.27;4.25;;;20.40;83.10;;;;;;21089012;28;20098;-57
2023/09/04 01:04:32;;;;;;;10.15;4.07;;;20.50;83.10;;;;;;21088218;28;20048;-56
2023/09/04 01:14:35;;;;;;;18.38;5.15;;;20.60;83.20;;;;;;21087372;28;20150;-58
2023/09/04 01:24:36;;;;;;;14.77;4.43;;;20.60;83.10;;;;;;21086436;28;20075;-59
2023/09/04 01:34:43;;;;;;;13.27;5.70;;;20.60;83.10;;;;;;21085353;28;20059;-57
2023/09/04 01:44:43;;;;;;;11.73;4.75;;;20.60;83.20;;;;;;21084821;28;20059;-57
2023/09/04 01:54:44;;;;;;;19.10;6.72;;;20.60;82.90;;;;;;21084249;28;20036;-57
2023/09/04 02:04:45;;;;;;;18.10;8.25;;;20.60;82.80;;;;;;21083481;28;20130;-57
2023/09/04 02:14:46;;;;;;;24.77;9.45;;;20.60;83.20;;;;;;21082884;28;20044;-57
2023/09/04 02:24:47;;;;;;;18.73;7.85;;;20.60;83.00;;;;;;21082060;28;20044;-57
2023/09/04 02:34:48;;;;;;;15.82;6.75;;;20.40;83.60;;;;;;21079842;28;20095;-57
2023/09/04 02:44:48;;;;;;;15.48;7.53;;;20.40;83.80;;;;;;21079186;28;20554;-56
2023/09/04 02:54:49;;;;;;;19.45;7.65;;;20.40;83.80;;;;;;21080292;28;20511;-56
2023/09/04 03:04:54;;;;;;;15.80;7.47;;;20.40;83.80;;;;;;21079401;28;20121;-57
2023/09/04 03:15:02;;;;;;;18.92;7.55;;;20.40;83.90;;;;;;21079267;28;20524;-56
2023/09/04 03:25:03;;;;;;;16.17;9.10;;;20.40;83.80;;;;;;21078885;28;20055;-57
2023/09/04 03:35:04;;;;;;;28.15;17.23;;;20.40;84.10;;;;;;21078653;28;20068;-57
2023/09/04 03:45:06;;;;;;;24.98;8.68;;;20.30;83.90;;;;;;21078276;28;20048;-58
2023/09/04 03:55:08;;;;;;;21.45;8.02;;;20.40;83.60;;;;;;21077569;28;20125;-58
2023/09/04 04:05:13;;;;;;;21.83;8.90;;;20.20;84.10;;;;;;21076572;28;20044;-56
2023/09/04 04:15:13;;;;;;;20.67;6.18;;;20.00;84.70;;;;;;21082816;28;20126;-57
2023/09/04 04:25:14;;;;;;;18.00;7.00;;;20.00;84.70;;;;;;21091740;28;20085;-57
2023/09/04 04:35:15;;;;;;;25.67;8.68;;;19.90;84.90;;;;;;21090261;28;20466;-57
2023/09/04 04:45:16;;;;;;;33.83;9.15;;;19.90;84.80;;;;;;21089609;28;20119;-57
2023/09/04 04:55:16;;;;;;;28.63;9.15;;;19.80;84.40;;;;;;21088775;28;20044;-57
2023/09/04 05:05:17;;;;;;;30.38;9.23;;;19.80;84.40;;;;;;21088085;28;20061;-56
2023/09/04 05:15:18;;;;;;;31.90;9.70;;;19.70;84.50;;;;;;21086127;28;20083;-57
2023/09/04 05:25:19;;;;;;;31.02;9.45;;;19.80;84.40;;;;;;21085717;28;20444;-58
2023/09/04 05:35:19;;;;;;;31.00;9.88;;;19.90;84.60;;;;;;21083885;28;20420;-56
2023/09/04 05:45:21;;;;;;;32.53;9.20;;;19.90;84.50;;;;;;21085310;28;20039;-56
2023/09/04 05:55:21;;;;;;;33.30;9.18;;;19.80;84.30;;;;;;21084165;28;20048;-58
2023/09/04 06:05:22;;;;;;;31.80;9.20;;;19.90;84.40;;;;;;21083341;28;20123;-56
2023/09/04 06:15:23;;;;;;;30.05;8.57;;;19.90;84.40;;;;;;21081469;28;20075;-57
2023/09/04 06:25:24;;;;;;;34.58;10.23;;;19.90;84.20;;;;;;21081842;28;20040;-56
2023/09/04 06:35:25;;;;;;;31.90;9.45;;;19.90;84.10;;;;;;21079219;28;20071;-56
2023/09/04 06:45:25;;;;;;;24.00;8.95;;;19.80;83.20;;;;;;21080217;28;20093;-57
2023/09/04 06:55:26;;;;;;;22.85;8.65;;;19.70;83.00;;;;;;21078833;28;20078;-57
2023/09/04 07:05:27;;;;;;;20.70;8.68;;;19.60;82.50;;;;;;21079386;28;20481;-56
2023/09/04 07:15:28;;;;;;;21.75;8.98;;;19.50;81.30;;;;;;21079354;28;20401;-56
2023/09/04 07:25:29;;;;;;;20.80;8.80;;;19.50;80.70;;;;;;21079205;28;20478;-58
2023/09/04 07:35:30;;;;;;;21.98;9.00;;;19.50;80.70;;;;;;21077755;28;20075;-56
2023/09/04 07:45:30;;;;;;;17.38;5.80;;;19.50;81.10;;;;;;21078882;28;20531;-56
2023/09/04 07:55:31;;;;;;;20.80;6.32;;;19.60;79.50;;;;;;21093947;28;20073;-56
2023/09/04 08:05:32;;;;;;;16.77;6.63;;;19.60;79.70;;;;;;21093406;28;20177;-56
2023/09/04 08:15:33;;;;;;;25.85;9.18;;;19.60;79.60;;;;;;21092797;28;20047;-56
2023/09/04 08:25:33;;;;;;;25.10;10.15;;;19.70;81.00;;;;;;21091480;28;20044;-56
2023/09/04 08:35:34;;;;;;;22.75;7.95;;;19.60;82.30;;;;;;21089244;28;20060;-56
2023/09/04 08:45:42;;;;;;;24.70;9.07;;;19.50;82.80;;;;;;21089877;28;20047;-57
2023/09/04 08:55:43;;;;;;;26.88;9.77;;;19.50;82.80;;;;;;21087717;28;20048;-56
2023/09/04 09:05:47;;;;;;;24.60;9.05;;;19.50;83.30;;;;;;21085948;28;20439;-56
2023/09/04 09:15:48;;;;;;;18.42;7.78;;;19.50;83.10;;;;;;21087363;28;20040;-57
2023/09/04 09:25:54;;;;;;;16.17;7.47;;;19.40;83.20;;;;;;21084959;28;20047;-57
2023/09/04 09:35:56;;;;;;;26.38;8.73;;;19.60;83.10;;;;;;21085150;28;20051;-57
2023/09/04 09:45:57;;;;;;;16.25;5.38;;;19.50;83.10;;;;;;21086024;28;20119;-57
2023/09/04 09:55:58;;;;;;;15.48;5.45;;;19.30;81.90;;;;;;21084363;28;20075;-56
2023/09/04 10:06:04;;;;;;;15.77;6.30;;;19.10;82.50;;;;;;21083307;28;20405;-57
2023/09/04 10:16:09;;;;;;;20.25;7.80;;;19.10;82.80;;;;;;21081561;28;20113;-57
2023/09/04 10:26:26;;;;;;;11.93;5.63;;;19.20;83.20;;;;;;21081765;28;20032;-57
2023/09/04 10:36:30;;;;;;;19.77;5.25;;;19.20;82.00;;;;;;21080036;28;20056;-58
2023/09/04 10:46:32;;;;;;;14.27;5.03;;;19.40;81.70;;;;;;21079538;28;20047;-57
2023/09/04 10:56:56;;;;;;;15.75;5.47;;;19.50;81.50;;;;;;21080475;28;20493;-58
2023/09/04 11:07:15;;;;;;;;;;;19.60;80.70;;;;;;21080463;28;20419;-56
2023/09/04 11:17:16;;;;;;;14.93;4.28;;;19.60;80.90;;;;;;21079669;28;19920;-57
2023/09/04 11:27:17;;;;;;;15.93;4.75;;;19.90;80.70;;;;;;21090561;28;20036;-59
2023/09/04 11:37:18;;;;;;;13.07;4.68;;;20.10;79.70;;;;;;21093823;28;20048;-58
2023/09/04 11:47:19;;;;;;;13.90;4.03;;;20.20;78.70;;;;;;21093632;28;20044;-58
2023/09/04 11:57:21;;;;;;;11.25;3.83;;;20.10;78.50;;;;;;21093556;28;20105;-58
2023/09/04 12:07:22;;;;;;;12.90;4.40;;;20.20;79.50;;;;;;21091547;28;20051;-57
2023/09/04 12:17:23;;;;;;;11.85;4.57;;;20.20;79.10;;;;;;21092747;28;20044;-59
2023/09/04 12:27:24;;;;;;;12.02;4.05;;;20.20;79.80;;;;;;21090163;28;20374;-59
2023/09/04 12:37:24;;;;;;;15.38;4.75;;;20.20;79.50;;;;;;21085620;28;20060;-57
2023/09/04 12:47:25;;;;;;;14.85;5.10;;;20.20;79.90;;;;;;21087618;28;20123;-58
2023/09/04 12:57:27;;;;;;;15.82;6.05;;;20.40;80.00;;;;;;21079835;28;20466;-58
2023/09/04 13:07:28;;;;;;;15.95;6.07;;;20.70;80.40;;;;;;21085122;28;20659;-58
2023/09/04 13:17:28;;;;;;;15.63;6.07;;;21.10;79.50;;;;;;21088138;28;20147;-56
2023/09/04 13:27:29;;;;;;;15.82;5.50;;;21.40;77.50;;;;;;21087129;28;20434;-58
2023/09/04 13:37:34;;;;;;;17.67;7.38;;;21.60;77.00;;;;;;21085270;28;20044;-57
2023/09/04 13:47:35;;;;;;;16.95;6.93;;;22.10;76.50;;;;;;21083366;28;20064;-57
2023/09/04 13:57:36;;;;;;;16.33;5.03;;;22.20;75.40;;;;;;21083755;28;20090;-57
2023/09/04 14:07:37;;;;;;;17.48;5.53;;;22.40;74.40;;;;;;21083064;28;20040;-59
2023/09/04 14:17:37;;;;;;;15.65;5.57;;;22.60;72.90;;;;;;21082728;28;20499;-56
2023/09/04 14:27:38;;;;;;;14.95;4.95;;;22.80;72.70;;;;;;21082349;28;20051;-59
2023/09/04 14:37:41;;;;;;;19.30;5.80;;;22.90;71.40;;;;;;21080423;28;20101;-57
2023/09/04 14:47:42;;;;;;;9.10;4.45;;;23.10;70.80;;;;;;21080699;28;20459;-58
2023/09/04 14:57:43;;;;;;;16.80;4.88;;;23.30;67.60;;;;;;21079868;28;20044;-60
2023/09/04 15:07:44;;;;;;;20.98;4.95;;;23.50;66.20;;;;;;21078512;28;20079;-58
2023/09/04 15:17:45;;;;;;;18.80;8.43;;;23.60;63.80;;;;;;21079314;28;20508;-58
2023/09/04 15:27:45;;;;;;;18.98;10.55;;;23.80;62.60;;;;;;21078603;28;20052;-58
2023/09/04 15:37:46;;;;;;;17.83;4.15;;;24.20;59.30;;;;;;21077120;28;20134;-58
2023/09/04 15:47:47;;;;;;;16.60;9.57;;;24.30;59.90;;;;;;21077412;28;20409;-58
2023/09/04 15:57:48;;;;;;;9.20;4.68;;;24.40;59.60;;;;;;21077241;28;20051;-59
2023/09/04 16:07:48;;;;;;;6.35;3.40;;;24.50;57.40;;;;;;21078652;28;20048;-58
2023/09/04 16:17:50;;;;;;;18.63;4.70;;;24.60;56.20;;;;;;21091413;28;20127;-58
2023/09/04 16:27:51;;;;;;;16.13;5.30;;;24.60;54.90;;;;;;21090600;28;20052;-57
2023/09/04 16:37:52;;;;;;;9.68;3.72;;;24.60;55.90;;;;;;21089507;28;20058;-57
2023/09/04 16:47:53;;;;;;;7.88;3.50;;;24.60;54.00;;;;;;21089914;28;20408;-57
2023/09/04 16:57:54;;;;;;;8.20;3.20;;;24.70;52.90;;;;;;21088723;28;20050;-56
2023/09/04 17:07:54;;;;;;;11.32;3.97;;;24.70;52.90;;;;;;21088387;28;20083;-58
2023/09/04 17:17:56;;;;;;;7.50;3.15;;;24.60;52.50;;;;;;21087044;28;20044;-57
2023/09/04 17:27:57;;;;;;;9.53;6.50;;;24.60;53.00;;;;;;21085612;28;20127;-58
2023/09/04 17:37:57;;;;;;;6.47;3.25;;;24.50;53.50;;;;;;21084063;28;20133;-57
2023/09/04 17:47:59;;;;;;;6.72;3.30;;;24.40;52.90;;;;;;21083328;28;20066;-57
2023/09/04 17:58:00;;;;;;;9.13;5.53;;;24.30;52.80;;;;;;21084111;28;20101;-58
2023/09/04 18:08:01;;;;;;;7.82;2.83;;;24.20;53.60;;;;;;21081989;28;20048;-57
2023/09/04 18:18:01;;;;;;;8.48;3.20;;;24.10;54.20;;;;;;21082585;28;20040;-58
2023/09/04 18:28:02;;;;;;;8.35;4.70;;;24.10;55.30;;;;;;21081809;28;20248;-60
2023/09/04 18:38:03;;;;;;;10.98;4.22;;;24.00;55.90;;;;;;21079181;28;20052;-58
2023/09/04 18:48:04;;;;;;;12.18;4.50;;;23.90;56.50;;;;;;21080428;28;20055;-58
2023/09/04 18:58:05;;;;;;;11.13;5.93;;;23.80;57.90;;;;;;21080094;28;20150;-57
2023/09/04 19:08:05;;;;;;;13.32;7.47;;;23.70;59.90;;;;;;21079657;28;20052;-57
2023/09/04 19:18:06;;;;;;;14.43;8.35;;;23.60;61.10;;;;;;21078075;28;20477;-56
2023/09/04 19:28:07;;;;;;;19.58;7.65;;;23.50;60.00;;;;;;21076686;28;20076;-57
2023/09/04 19:38:08;;;;;;;18.98;6.93;;;23.50;62.20;;;;;;21077093;28;20059;-57
2023/09/04 19:48:08;;;;;;;25.58;9.43;;;23.40;63.90;;;;;;21087419;28;20051;-59
2023/09/04 19:58:09;;;;;;;22.95;9.68;;;23.40;65.10;;;;;;21093243;28;20040;-57
2023/09/04 20:08:10;;;;;;;27.52;9.88;;;23.30;65.30;;;;;;21091167;28;20484;-58
2023/09/04 20:18:11;;;;;;;33.88;16.17;;;23.30;65.90;;;;;;21091756;28;20044;-58
2023/09/04 20:28:11;;;;;;;21.05;7.82;;;23.20;65.90;;;;;;21090230;28;20092;-58
2023/09/04 20:38:12;;;;;;;20.35;9.52;;;23.20;66.20;;;;;;21090054;28;20093;-57
2023/09/04 20:48:16;;;;;;;20.77;10.30;;;23.10;67.00;;;;;;21089967;28;20044;-58
2023/09/04 20:58:17;;;;;;;23.48;9.65;;;23.10;67.20;;;;;;21087987;28;20048;-58
2023/09/04 23:22:30;;;;;;;37.25;9.27;;;21.80;74.00;;;;;;21089650;28;20560;-59
2023/09/04 23:53:25;;;;;;;37.63;10.18;;;21.70;74.40;;;;;;21094532;28;20382;-58
